Time;durP1;ratioP1;P1;durP2;ratioP2;P2;SDS_P1;SDS_P2;PMS_P1;PMS_P2;Temp;Humidity;BMP_temperature;BMP_pressure;BME280_temperature;BME280_humidity;BME280_pressure;Samples;Min_cycle;Max_cycle;Signal;HPM_P1;HPM_P2
2022/02/11 00:07:04;;;;;;;4.90;4.40;;;5.10;99.90;;;;;;5018630;28;20428;-69
2022/02/11 00:09:30;;;;;;;5.13;4.43;;;5.10;99.90;;;;;;5032547;28;20570;-70
2022/02/11 00:11:56;;;;;;;4.80;4.40;;;5.10;99.90;;;;;;5032715;28;20496;-69
2022/02/11 00:14:24;;;;;;;5.10;4.60;;;5.20;99.90;;;;;;5033582;28;20687;-69
2022/02/11 00:16:49;;;;;;;5.10;4.60;;;5.30;99.90;;;;;;5032115;28;20568;-69
2022/02/11 00:19:15;;;;;;;6.40;4.63;;;5.30;99.90;;;;;;5032240;28;20922;-69
2022/02/11 00:21:40;;;;;;;4.70;4.30;;;5.20;99.90;;;;;;5032529;28;20449;-70
2022/02/11 00:24:06;;;;;;;5.33;4.70;;;5.30;99.90;;;;;;5015740;28;20296;-69
2022/02/11 00:26:35;;;;;;;7.00;5.33;;;5.30;99.90;;;;;;5032481;28;20207;-70
2022/02/11 00:30:03;;;;;;;4.97;4.53;;;5.20;99.90;;;;;;5032161;28;20214;-69
2022/02/11 00:32:18;;;;;;;7.63;5.17;;;5.30;99.90;;;;;;5034781;28;20814;-70
2022/02/11 00:34:50;;;;;;;6.00;5.07;;;5.30;99.90;;;;;;5050681;28;20844;-69
2022/02/11 00:37:22;;;;;;;5.37;4.37;;;5.20;99.90;;;;;;5012602;28;20435;-70
2022/02/11 01:04:00;;;;;;;8.10;6.90;;;5.50;99.90;;;;;;5051273;28;20535;-70
2022/02/11 01:06:27;;;;;;;7.23;6.40;;;5.50;99.90;;;;;;5051391;28;20948;-69
2022/02/11 01:08:53;;;;;;;9.57;6.50;;;5.40;99.90;;;;;;5050483;28;20515;-66
2022/02/11 01:11:30;;;;;;;7.80;7.00;;;5.40;99.90;;;;;;5049892;28;20506;-67
2022/02/11 01:13:55;;;;;;;7.73;6.90;;;5.40;99.90;;;;;;5050927;28;20491;-66
2022/02/11 01:16:28;;;;;;;9.00;7.50;;;5.30;99.90;;;;;;5050990;28;20472;-66
2022/02/11 01:19:06;;;;;;;14.10;8.80;;;5.20;99.90;;;;;;5051453;28;20232;-71
2022/02/11 01:21:41;;;;;;;8.87;7.60;;;5.00;99.90;;;;;;5049578;28;20456;-69
2022/02/11 01:27:22;;;;;;;10.33;8.20;;;5.00;99.90;;;;;;5051811;28;20831;-70
2022/02/11 01:32:40;;;;;;;13.50;9.73;;;5.10;99.90;;;;;;5048547;28;20478;-69
2022/02/11 01:35:26;;;;;;;11.43;9.10;;;5.20;99.90;;;;;;5051005;28;20979;-69
2022/02/11 01:38:06;;;;;;;11.00;8.90;;;5.10;99.90;;;;;;5051447;28;20547;-69
2022/02/11 01:48:58;;;;;;;11.00;9.90;;;5.20;99.90;;;;;;5050866;28;20551;-69
2022/02/11 01:56:52;;;;;;;13.40;10.60;;;5.40;99.90;;;;;;5050602;28;20818;-69
2022/02/11 02:02:12;;;;;;;10.97;9.70;;;5.40;99.90;;;;;;5031216;28;20793;-70
2022/02/11 02:21:20;;;;;;;12.70;9.97;;;5.50;99.90;;;;;;5048466;28;20449;-69
2022/02/11 02:57:44;;;;;;;12.70;11.03;;;5.20;99.90;;;;;;5029984;28;20613;-69
2022/02/11 03:00:52;;;;;;;12.17;10.83;;;5.10;99.90;;;;;;5030864;28;20518;-70
2022/02/11 03:17:48;;;;;;;17.20;11.10;;;4.90;99.90;;;;;;5052278;28;20431;-69
2022/02/11 03:48:41;;;;;;;14.00;10.93;;;4.70;99.90;;;;;;5055279;28;20478;-69
2022/02/11 03:50:31;;;;;;;19.00;13.10;;;4.70;99.90;;;;;;5055642;28;20427;-70
2022/02/11 04:23:21;;;;;;;14.00;11.17;;;4.70;99.90;;;;;;5054507;28;20428;-70
2022/02/11 04:26:20;;;;;;;18.30;10.90;;;4.70;99.90;;;;;;5054478;28;20464;-70
2022/02/11 04:52:51;;;;;;;16.13;11.20;;;4.60;99.90;;;;;;5054579;28;20452;-70
2022/02/11 04:55:53;;;;;;;20.93;10.20;;;4.80;99.90;;;;;;5048824;28;20440;-68
2022/02/11 05:01:04;;;;;;;15.73;10.20;;;4.80;99.90;;;;;;5056529;28;20411;-69
2022/02/11 05:03:29;;;;;;;11.60;9.47;;;4.80;99.90;;;;;;5056835;28;20546;-68
2022/02/11 05:05:55;;;;;;;13.80;10.00;;;4.90;99.90;;;;;;5056235;28;20547;-69
2022/02/11 05:08:25;;;;;;;12.50;9.77;;;4.90;99.90;;;;;;5056782;28;20200;-67
2022/02/11 05:10:57;;;;;;;15.70;9.77;;;4.90;99.90;;;;;;5062024;28;20180;-68
2022/02/11 05:13:23;;;;;;;12.73;9.07;;;4.90;99.90;;;;;;5063052;28;20415;-69
2022/02/11 05:15:49;;;;;;;12.63;9.33;;;4.90;99.90;;;;;;5062972;28;20424;-69
2022/02/11 05:18:17;;;;;;;16.30;9.57;;;4.90;99.90;;;;;;5066615;28;20480;-68
2022/02/11 05:20:42;;;;;;;15.00;9.40;;;4.90;99.90;;;;;;5074991;28;20413;-68
2022/02/11 05:23:10;;;;;;;13.40;9.50;;;4.90;99.90;;;;;;5060639;28;20426;-68
2022/02/11 05:25:37;;;;;;;11.63;9.73;;;4.80;99.90;;;;;;5059466;28;20208;-69
2022/02/11 05:28:04;;;;;;;13.83;9.83;;;4.90;99.90;;;;;;5059016;28;20473;-68
2022/02/11 05:30:30;;;;;;;13.60;9.87;;;4.70;99.90;;;;;;5049463;28;20807;-70
2022/02/11 05:32:55;;;;;;;17.60;11.70;;;4.70;99.90;;;;;;5061178;28;20461;-69
2022/02/11 05:35:21;;;;;;;12.80;9.43;;;4.60;99.90;;;;;;5061419;28;20679;-71
2022/02/11 05:37:48;;;;;;;16.00;10.00;;;4.70;99.90;;;;;;5064967;28;20619;-68
2022/02/11 05:40:13;;;;;;;14.67;10.53;;;4.70;99.90;;;;;;5072021;28;20405;-67
2022/02/11 05:42:39;;;;;;;16.10;10.00;;;4.80;99.90;;;;;;5075009;28;20427;-68
2022/02/11 05:45:05;;;;;;;12.70;9.83;;;4.80;99.90;;;;;;5076205;28;20186;-68
2022/02/11 05:47:30;;;;;;;14.20;9.40;;;4.90;99.90;;;;;;5074889;28;20182;-69
2022/02/11 05:49:57;;;;;;;13.43;9.83;;;4.90;99.90;;;;;;5074197;28;20470;-68
2022/02/11 05:52:22;;;;;;;10.40;9.07;;;4.90;99.90;;;;;;5056146;28;20169;-68
2022/02/11 05:54:48;;;;;;;15.70;9.97;;;4.90;99.90;;;;;;5072263;28;20415;-68
2022/02/11 05:57:13;;;;;;;13.20;9.33;;;4.80;99.90;;;;;;5055400;28;20170;-69
2022/02/11 05:59:39;;;;;;;15.63;10.00;;;4.80;99.90;;;;;;5035364;28;20280;-69
2022/02/11 06:02:04;;;;;;;12.27;9.80;;;4.70;99.90;;;;;;5054415;28;20212;-68
2022/02/11 06:04:30;;;;;;;13.70;10.67;;;4.70;99.90;;;;;;5052285;28;20629;-69
2022/02/11 06:06:57;;;;;;;13.27;8.97;;;4.70;99.90;;;;;;5049682;28;20210;-69
2022/02/11 06:09:23;;;;;;;12.60;8.33;;;4.80;99.90;;;;;;5051865;28;20194;-68
2022/02/11 06:11:49;;;;;;;12.10;8.30;;;4.80;99.90;;;;;;5052098;28;20750;-68
2022/02/11 06:14:15;;;;;;;13.83;9.20;;;4.90;99.90;;;;;;5034571;28;20174;-69
2022/02/11 06:16:41;;;;;;;15.13;9.30;;;4.90;99.90;;;;;;5047284;28;20196;-69
2022/02/11 06:19:07;;;;;;;16.23;9.17;;;5.00;99.90;;;;;;5052399;28;20439;-68
2022/02/11 06:21:32;;;;;;;13.63;8.00;;;5.00;99.90;;;;;;5052440;28;20685;-69
2022/02/11 06:23:58;;;;;;;15.63;8.53;;;5.00;99.90;;;;;;5046032;28;20310;-69
2022/02/11 06:26:23;;;;;;;11.37;7.87;;;5.00;99.90;;;;;;5051684;28;20275;-68
2022/02/11 06:28:50;;;;;;;16.53;9.30;;;5.00;99.90;;;;;;5052095;28;20279;-69
2022/02/11 06:31:16;;;;;;;12.90;9.40;;;5.00;99.90;;;;;;5040608;28;20198;-68
2022/02/11 06:33:42;;;;;;;13.13;8.43;;;5.00;99.90;;;;;;5038352;28;20452;-68
2022/02/11 06:36:08;;;;;;;12.57;8.97;;;4.90;99.90;;;;;;5047241;28;20454;-68
2022/02/11 06:38:33;;;;;;;13.33;9.00;;;5.00;99.90;;;;;;5047670;28;20459;-69
2022/02/11 06:40:59;;;;;;;13.43;8.33;;;5.00;99.90;;;;;;5043492;28;20198;-70
2022/02/11 06:43:24;;;;;;;18.80;8.03;;;5.00;99.90;;;;;;5052935;28;20678;-68
2022/02/11 06:45:50;;;;;;;12.50;8.57;;;5.10;99.90;;;;;;5046520;28;20234;-70
2022/02/11 06:48:19;;;;;;;12.90;8.73;;;5.10;99.90;;;;;;5045011;28;20218;-68
2022/02/11 06:50:46;;;;;;;10.50;8.03;;;5.10;99.90;;;;;;5026127;28;20209;-69
2022/02/11 06:53:13;;;;;;;10.93;9.00;;;5.10;99.90;;;;;;5050776;28;20503;-69
2022/02/11 06:55:38;;;;;;;10.50;8.70;;;5.10;99.90;;;;;;5036409;28;20513;-69
2022/02/11 06:58:04;;;;;;;14.37;8.20;;;5.10;99.90;;;;;;5047233;28;20448;-68
2022/02/11 07:00:29;;;;;;;17.93;9.07;;;5.10;99.90;;;;;;5044506;28;20206;-70
2022/02/11 07:02:55;;;;;;;14.67;7.37;;;5.10;99.90;;;;;;5050844;28;20551;-68
2022/02/11 07:05:21;;;;;;;13.63;7.50;;;5.10;99.90;;;;;;5043677;28;20249;-68
2022/02/11 07:07:50;;;;;;;11.50;7.73;;;5.10;99.90;;;;;;5045055;28;20276;-68
2022/02/11 07:10:15;;;;;;;13.00;7.00;;;5.10;99.90;;;;;;5048265;28;20226;-68
2022/02/11 07:12:41;;;;;;;14.43;7.63;;;5.10;99.90;;;;;;5055786;28;20428;-68
2022/02/11 07:15:07;;;;;;;15.17;8.77;;;5.00;99.90;;;;;;5036169;28;20246;-70
2022/02/11 07:17:33;;;;;;;15.07;7.00;;;5.00;99.90;;;;;;5051096;28;20439;-70
2022/02/11 07:19:59;;;;;;;13.07;7.00;;;5.00;99.90;;;;;;5041850;28;20458;-69
2022/02/11 07:22:25;;;;;;;13.60;5.87;;;4.90;99.90;;;;;;5051435;28;20200;-68
2022/02/11 07:24:53;;;;;;;14.40;7.30;;;4.90;99.90;;;;;;5052375;28;20452;-68
2022/02/11 07:27:19;;;;;;;10.80;6.10;;;4.80;99.90;;;;;;5048337;28;20185;-69
2022/02/11 07:29:44;;;;;;;11.00;5.90;;;4.90;99.90;;;;;;5050376;28;20458;-68
2022/02/11 07:32:10;;;;;;;14.23;6.23;;;4.90;99.90;;;;;;5054962;28;20199;-68
2022/02/11 07:34:37;;;;;;;11.30;5.80;;;5.00;99.90;;;;;;5055508;28;20189;-68
2022/02/11 07:37:04;;;;;;;8.70;4.60;;;5.10;99.90;;;;;;5055334;28;20150;-68
2022/02/11 07:39:30;;;;;;;11.07;5.23;;;5.10;99.90;;;;;;5038013;28;20520;-68
2022/02/11 07:41:56;;;;;;;8.27;5.00;;;5.10;99.90;;;;;;5055792;28;20714;-67
2022/02/11 07:44:22;;;;;;;11.27;6.00;;;5.10;99.90;;;;;;5055681;28;20743;-68
2022/02/11 07:46:48;;;;;;;8.00;4.47;;;5.20;99.90;;;;;;5056082;28;20490;-68
2022/02/11 07:49:14;;;;;;;11.87;5.47;;;5.10;99.90;;;;;;5038204;28;20417;-68
2022/02/11 07:51:40;;;;;;;18.40;6.00;;;5.10;99.90;;;;;;5055742;28;20469;-68
2022/02/11 07:54:05;;;;;;;23.13;7.10;;;5.10;99.90;;;;;;5056100;28;20417;-68
2022/02/11 07:56:31;;;;;;;11.00;6.00;;;5.10;99.90;;;;;;5055180;28;20201;-70
2022/02/11 07:58:56;;;;;;;12.73;4.90;;;5.10;99.90;;;;;;5055772;28;20185;-68
2022/02/11 08:01:22;;;;;;;7.30;5.27;;;5.20;99.90;;;;;;5055701;28;20605;-68
2022/02/11 08:03:51;;;;;;;15.23;5.73;;;5.20;99.90;;;;;;5056188;28;20181;-68
2022/02/11 08:06:17;;;;;;;8.03;4.93;;;5.20;99.90;;;;;;5055520;28;20275;-68
2022/02/11 08:08:42;;;;;;;9.60;5.17;;;5.30;99.90;;;;;;5055342;28;20436;-68
2022/02/11 08:11:08;;;;;;;12.57;3.40;;;5.30;99.90;;;;;;5053922;28;20535;-68
2022/02/11 08:13:34;;;;;;;11.83;4.53;;;5.20;99.90;;;;;;5055258;28;20170;-68
2022/02/11 08:15:59;;;;;;;12.80;4.70;;;5.10;99.90;;;;;;5053346;28;20205;-68
2022/02/11 08:18:25;;;;;;;11.57;4.50;;;5.00;99.90;;;;;;5053846;28;20637;-68
2022/02/11 08:20:50;;;;;;;11.27;4.20;;;5.10;99.90;;;;;;5053927;28;20420;-68
2022/02/11 08:23:17;;;;;;;8.20;3.83;;;5.10;99.90;;;;;;5053844;28;20544;-68
2022/02/11 08:25:42;;;;;;;8.60;3.63;;;5.20;99.90;;;;;;5054385;28;20691;-68
2022/02/11 08:28:08;;;;;;;5.70;3.33;;;5.20;99.90;;;;;;5053802;28;20467;-68
2022/02/11 08:30:33;;;;;;;10.03;3.63;;;5.30;99.90;;;;;;5054469;28;20173;-67
2022/02/11 08:32:58;;;;;;;11.67;4.90;;;5.40;99.90;;;;;;5053955;28;20181;-68
2022/02/11 08:35:24;;;;;;;6.67;3.90;;;5.40;99.90;;;;;;5053958;28;20189;-67
2022/02/11 08:37:49;;;;;;;12.70;3.73;;;5.50;99.90;;;;;;5053638;28;20179;-67
2022/02/11 08:40:15;;;;;;;15.83;5.90;;;5.70;99.90;;;;;;5053896;28;20215;-69
2022/02/11 08:42:40;;;;;;;11.30;4.07;;;5.70;99.90;;;;;;5053909;28;20638;-67
2022/02/11 08:45:07;;;;;;;8.20;3.77;;;5.80;99.90;;;;;;5053771;28;20599;-67
2022/02/11 08:47:33;;;;;;;10.60;3.67;;;5.70;99.90;;;;;;5036239;28;20170;-68
2022/02/11 08:50:00;;;;;;;7.50;3.77;;;5.80;99.90;;;;;;5053234;28;20952;-68
2022/02/11 08:52:27;;;;;;;11.17;3.13;;;5.80;99.90;;;;;;5053800;28;20408;-68
2022/02/11 08:54:54;;;;;;;4.83;3.37;;;5.70;99.90;;;;;;5053567;28;20413;-68
2022/02/11 08:57:19;;;;;;;7.13;3.07;;;5.70;99.90;;;;;;5054495;28;20896;-68
2022/02/11 08:59:45;;;;;;;8.37;4.90;;;5.70;99.90;;;;;;5053200;28;20444;-67
2022/02/11 09:02:11;;;;;;;8.73;3.70;;;5.70;99.90;;;;;;5053684;28;20261;-67
2022/02/11 09:04:39;;;;;;;9.67;3.30;;;5.60;99.90;;;;;;5053084;28;20166;-67
2022/02/11 09:07:05;;;;;;;7.00;2.97;;;5.60;99.90;;;;;;5053403;28;20432;-69
2022/02/11 09:09:31;;;;;;;9.83;2.87;;;5.40;99.90;;;;;;5052866;28;20444;-67
2022/02/11 09:11:56;;;;;;;10.17;3.17;;;5.20;99.90;;;;;;5052581;28;20462;-69
2022/02/11 09:14:22;;;;;;;10.57;3.30;;;5.30;99.90;;;;;;5058658;22;20641;-70
2022/02/11 09:16:47;;;;;;;13.63;3.90;;;5.30;99.90;;;;;;5067710;28;20240;-70
2022/02/11 09:19:13;;;;;;;8.27;4.10;;;5.20;99.90;;;;;;5056381;28;20181;-69
2022/02/11 09:21:39;;;;;;;11.67;4.00;;;5.30;99.90;;;;;;5038053;28;20220;-70
2022/02/11 09:24:04;;;;;;;10.20;4.70;;;5.40;99.90;;;;;;5063791;28;20906;-70
2022/02/11 09:26:30;;;;;;;11.47;3.90;;;5.50;99.90;;;;;;5042232;28;20177;-71
2022/02/11 09:28:56;;;;;;;10.40;3.50;;;5.50;99.90;;;;;;5037077;28;20657;-70
2022/02/11 09:31:27;;;;;;;6.93;3.30;;;5.50;99.90;;;;;;5055507;28;20166;-70
2022/02/11 09:34:03;;;;;;;6.07;3.07;;;5.50;99.90;;;;;;5055704;28;20173;-71
2022/02/11 09:36:29;;;;;;;7.73;3.53;;;5.60;99.90;;;;;;5056634;28;20531;-71
2022/02/11 09:38:55;;;;;;;8.57;3.30;;;5.60;99.90;;;;;;5055620;28;20419;-71
2022/02/11 09:41:22;;;;;;;10.90;4.07;;;5.50;99.90;;;;;;5055650;28;20405;-71
2022/02/11 09:43:48;;;;;;;10.67;3.63;;;5.50;99.90;;;;;;5055381;28;20412;-69
2022/02/11 09:46:15;;;;;;;12.13;3.90;;;5.50;99.90;;;;;;5056067;28;20446;-69
2022/02/11 09:48:40;;;;;;;11.87;4.20;;;5.50;99.90;;;;;;5055282;28;20813;-70
2022/02/11 09:51:06;;;;;;;15.00;3.90;;;5.60;99.90;;;;;;5055930;28;20416;-70
2022/02/11 09:53:32;;;;;;;11.67;3.40;;;5.70;99.90;;;;;;5055743;28;20206;-70
2022/02/11 09:55:57;;;;;;;11.50;4.60;;;5.70;99.90;;;;;;5055796;28;20276;-70
2022/02/11 09:58:23;;;;;;;15.97;4.33;;;5.80;99.90;;;;;;5055407;28;20626;-70
2022/02/11 10:00:50;;;;;;;6.40;3.10;;;5.80;99.90;;;;;;5056783;28;20224;-69
2022/02/11 10:03:20;;;;;;;6.33;2.80;;;5.80;99.90;;;;;;5055654;28;20416;-72
2022/02/11 10:05:47;;;;;;;7.77;3.20;;;5.80;99.90;;;;;;5056560;28;20425;-71
2022/02/11 10:08:15;;;;;;;18.10;3.93;;;5.70;99.90;;;;;;5055599;28;20444;-70
2022/02/11 10:10:47;;;;;;;7.07;3.47;;;5.70;99.90;;;;;;5064345;28;20521;-70
2022/02/11 10:13:18;;;;;;;13.57;3.60;;;5.80;99.90;;;;;;5056615;28;20432;-69
2022/02/11 10:15:49;;;;;;;12.60;3.57;;;5.80;99.90;;;;;;5056088;28;20948;-70
2022/02/11 10:18:15;;;;;;;9.17;3.57;;;5.80;99.90;;;;;;5056849;28;20432;-70
2022/02/11 10:20:47;;;;;;;9.10;3.03;;;5.90;99.90;;;;;;5055354;28;20409;-70
2022/02/11 10:23:21;;;;;;;14.10;3.90;;;5.90;99.90;;;;;;5055266;28;20411;-70
2022/02/11 10:26:00;;;;;;;10.60;3.00;;;5.80;99.90;;;;;;5056001;28;20516;-70
2022/02/11 10:28:35;;;;;;;10.03;3.30;;;5.90;99.90;;;;;;5055991;28;20444;-70
2022/02/11 10:31:23;;;;;;;7.47;3.00;;;5.90;99.90;;;;;;5039323;28;20781;-70
2022/02/11 10:33:50;;;;;;;17.57;3.00;;;6.00;99.90;;;;;;5055893;28;20424;-71
2022/02/11 10:36:27;;;;;;;7.30;2.50;;;5.90;99.90;;;;;;5054527;28;20424;-69
2022/02/11 10:39:12;;;;;;;14.67;3.27;;;5.90;99.90;;;;;;5054454;28;20408;-70
2022/02/11 10:41:45;;;;;;;5.27;3.23;;;5.90;99.90;;;;;;5036218;28;20394;-70
2022/02/11 10:44:14;;;;;;;10.40;3.53;;;5.90;99.90;;;;;;5038872;28;20778;-70
2022/02/11 10:46:48;;;;;;;12.93;3.77;;;5.90;99.90;;;;;;5039192;28;20410;-69
2022/02/11 10:49:15;;;;;;;9.57;3.33;;;6.00;99.90;;;;;;5020977;28;20564;-71
2022/02/11 10:51:46;;;;;;;8.43;2.90;;;6.10;99.90;;;;;;5056065;28;20428;-70
2022/02/11 10:54:24;;;;;;;8.90;3.00;;;6.20;99.90;;;;;;5058469;28;20420;-70
2022/02/11 10:56:51;;;;;;;13.10;3.57;;;6.10;99.90;;;;;;5058604;28;20436;-70
2022/02/11 10:59:38;;;;;;;9.10;3.47;;;6.20;99.90;;;;;;5058947;28;20444;-71
2022/02/11 11:02:18;;;;;;;10.60;3.13;;;6.20;99.90;;;;;;5060405;28;20458;-71
2022/02/11 11:04:45;;;;;;;10.17;3.37;;;6.10;99.90;;;;;;5077996;28;20438;-70
2022/02/11 11:07:13;;;;;;;11.43;3.20;;;6.00;99.90;;;;;;5079118;28;20412;-68
2022/02/11 11:09:45;;;;;;;12.63;2.57;;;6.00;99.90;;;;;;5078547;28;20467;-69
2022/02/11 11:12:14;;;;;;;5.90;2.70;;;6.00;99.90;;;;;;5076887;28;20420;-69
2022/02/11 11:14:41;;;;;;;14.80;4.73;;;6.00;99.90;;;;;;5078885;28;20439;-70
2022/02/11 11:17:09;;;;;;;8.67;3.50;;;6.20;99.90;;;;;;5079739;28;20407;-70
2022/02/11 11:19:36;;;;;;;8.97;3.00;;;6.20;99.90;;;;;;5079746;28;20495;-71
2022/02/11 11:22:16;;;;;;;8.83;3.07;;;6.20;99.90;;;;;;5059409;28;20424;-70
2022/02/11 11:24:53;;;;;;;11.57;3.90;;;6.30;99.90;;;;;;5059084;28;20812;-70
2022/02/11 11:27:43;;;;;;;11.03;3.80;;;6.20;99.90;;;;;;5058950;28;20495;-70
2022/02/11 11:30:40;;;;;;;6.70;2.83;;;6.30;99.90;;;;;;5059121;28;20823;-69
2022/02/11 11:33:08;;;;;;;6.90;2.80;;;6.30;99.90;;;;;;5064860;28;20420;-70
2022/02/11 11:35:41;;;;;;;7.37;2.90;;;6.20;99.90;;;;;;5060325;28;20444;-70
2022/02/11 11:38:11;;;;;;;9.27;2.67;;;6.30;99.90;;;;;;5038694;28;20414;-71
2022/02/11 11:40:36;;;;;;;6.60;2.90;;;6.30;99.90;;;;;;5043653;28;20512;-69
2022/02/11 11:43:12;;;;;;;8.70;2.40;;;6.10;99.90;;;;;;5058375;28;20420;-69
2022/02/11 11:45:42;;;;;;;13.87;3.13;;;6.20;99.90;;;;;;5038065;28;20205;-69
2022/02/11 11:48:15;;;;;;;7.27;2.97;;;6.20;99.90;;;;;;5038117;28;20493;-70
2022/02/11 11:50:41;;;;;;;7.83;2.90;;;6.10;99.90;;;;;;5056890;28;20416;-69
2022/02/11 11:53:26;;;;;;;7.30;2.90;;;6.10;99.90;;;;;;5056171;28;20939;-71
2022/02/11 11:55:52;;;;;;;8.83;3.37;;;6.20;99.90;;;;;;5059303;28;20441;-72
2022/02/11 11:58:42;;;;;;;6.50;2.60;;;6.20;99.90;;;;;;5057670;28;20512;-70
2022/02/11 12:01:18;;;;;;;6.10;2.53;;;6.20;99.90;;;;;;5056921;28;20413;-70
2022/02/11 12:04:16;;;;;;;15.47;3.97;;;6.20;99.90;;;;;;5054467;28;20440;-69
2022/02/11 12:06:42;;;;;;;10.57;4.20;;;6.30;99.90;;;;;;5059707;28;20439;-69
2022/02/11 12:09:08;;;;;;;10.50;3.07;;;6.50;99.90;;;;;;5056845;28;20543;-69
2022/02/11 12:11:34;;;;;;;11.07;2.40;;;6.50;99.90;;;;;;5056822;28;20451;-68
2022/02/11 12:14:00;;;;;;;7.90;2.50;;;6.50;99.90;;;;;;5056001;28;20253;-70
2022/02/11 12:16:26;;;;;;;11.30;3.30;;;6.40;99.90;;;;;;5057721;28;20881;-70
2022/02/11 12:18:52;;;;;;;10.73;2.90;;;6.30;99.90;;;;;;5058264;28;20672;-70
2022/02/11 12:21:18;;;;;;;13.63;2.80;;;6.30;99.90;;;;;;5044791;28;20412;-69
2022/02/11 12:29:11;;;;;;;4.10;2.80;;;6.40;99.90;;;;;;5077624;28;20459;-69
2022/02/11 12:31:38;;;;;;;12.57;3.33;;;6.30;99.90;;;;;;5077131;28;20867;-68
2022/02/11 12:34:16;;;;;;;6.57;2.33;;;6.30;99.90;;;;;;5077558;28;20173;-70
2022/02/11 12:36:42;;;;;;;11.63;2.47;;;6.40;99.90;;;;;;5075125;28;20412;-69
2022/02/11 12:39:08;;;;;;;7.43;2.10;;;6.60;99.90;;;;;;5064596;28;20516;-69
2022/02/11 12:41:51;;;;;;;5.20;2.60;;;6.60;97.90;;;;;;5058541;28;20411;-67
2022/02/11 12:44:31;;;;;;;8.50;2.60;;;6.70;97.40;;;;;;5056625;28;20174;-70
2022/02/11 12:47:02;;;;;;;8.60;2.53;;;6.70;96.60;;;;;;5054704;28;20411;-68
2022/02/11 12:49:30;;;;;;;6.17;2.47;;;6.80;98.90;;;;;;5056425;28;20492;-70
2022/02/11 12:51:57;;;;;;;8.73;2.60;;;7.00;98.20;;;;;;5056693;28;20438;-70
2022/02/11 12:54:23;;;;;;;5.77;2.10;;;7.00;97.20;;;;;;5057439;28;20432;-69
2022/02/11 12:56:58;;;;;;;10.57;2.53;;;7.00;97.00;;;;;;5057334;28;20404;-70
2022/02/11 12:59:24;;;;;;;7.63;1.77;;;6.90;96.60;;;;;;5059789;28;20411;-70
2022/02/11 13:01:49;;;;;;;7.20;1.90;;;6.90;95.00;;;;;;5069321;28;21174;-70
2022/02/11 13:04:19;;;;;;;8.47;1.97;;;6.70;94.70;;;;;;5056893;28;20185;-69
2022/02/11 13:06:45;;;;;;;4.40;2.00;;;6.60;93.80;;;;;;5057131;28;20281;-69
2022/02/11 13:09:11;;;;;;;9.10;2.90;;;6.60;94.10;;;;;;5056483;28;20448;-70
2022/02/11 13:11:37;;;;;;;7.00;2.30;;;6.60;93.20;;;;;;5056537;28;20482;-69
2022/02/11 13:14:06;;;;;;;7.90;1.90;;;6.60;93.20;;;;;;5038171;28;20421;-69
2022/02/11 13:16:34;;;;;;;3.70;1.77;;;6.70;92.60;;;;;;5056871;28;20193;-71
2022/02/11 13:19:18;;;;;;;7.30;1.97;;;6.60;91.90;;;;;;5056273;28;20412;-70
2022/02/11 13:21:44;;;;;;;4.10;1.30;;;6.70;91.60;;;;;;5056762;28;20417;-72
2022/02/11 13:24:10;;;;;;;3.60;1.30;;;6.70;91.00;;;;;;5056811;28;20417;-73
2022/02/11 13:26:37;;;;;;;5.50;1.57;;;6.80;91.40;;;;;;5057160;28;20413;-72
2022/02/11 13:29:11;;;;;;;5.90;1.90;;;6.80;91.40;;;;;;5056901;28;20439;-69
2022/02/11 13:31:51;;;;;;;3.90;1.60;;;6.80;91.80;;;;;;5056625;28;20439;-68
2022/02/11 13:34:17;;;;;;;7.10;2.47;;;6.90;91.90;;;;;;5055765;28;20428;-71
2022/02/11 13:36:48;;;;;;;4.73;1.37;;;6.90;92.20;;;;;;5037964;28;20431;-71
2022/02/11 13:39:31;;;;;;;5.57;1.93;;;6.80;92.10;;;;;;5057793;28;20917;-70
2022/02/11 13:41:57;;;;;;;8.13;1.77;;;6.80;91.50;;;;;;5056045;28;20428;-70
2022/02/11 13:44:23;;;;;;;3.73;1.60;;;6.90;91.90;;;;;;5056403;28;20525;-70
2022/02/11 13:46:52;;;;;;;7.40;2.13;;;6.90;92.10;;;;;;5055450;28;20546;-72
2022/02/11 13:49:20;;;;;;;4.10;1.70;;;6.90;91.20;;;;;;5055484;28;20348;-71
2022/02/11 13:53:01;;;;;;;4.87;1.87;;;7.00;91.90;;;;;;5054870;28;20496;-72
2022/02/11 13:54:59;;;;;;;4.53;1.80;;;7.10;91.80;;;;;;5054894;28;20433;-71
2022/02/11 13:57:25;;;;;;;8.83;2.23;;;7.10;91.30;;;;;;5055885;28;20393;-70
2022/02/11 13:59:50;;;;;;;11.60;2.80;;;7.10;91.20;;;;;;5056087;28;20431;-71
2022/02/11 14:02:19;;;;;;;6.63;2.33;;;7.10;91.70;;;;;;5054519;28;20415;-69
2022/02/11 14:04:46;;;;;;;6.00;2.00;;;7.20;91.80;;;;;;5055361;28;20568;-70
2022/02/11 14:07:14;;;;;;;5.30;1.53;;;7.20;91.80;;;;;;5054544;28;20964;-69
2022/02/11 14:09:41;;;;;;;3.57;1.87;;;7.10;91.80;;;;;;5056189;28;20451;-72
2022/02/11 14:12:27;;;;;;;11.30;2.53;;;7.00;92.20;;;;;;5054970;28;20440;-70
2022/02/11 14:14:55;;;;;;;6.53;1.63;;;6.90;92.40;;;;;;5055232;28;20463;-70
2022/02/11 14:17:21;;;;;;;4.40;1.80;;;6.80;92.20;;;;;;5054042;28;20436;-69
2022/02/11 14:19:47;;;;;;;5.40;1.63;;;6.80;92.70;;;;;;5037852;28;20422;-71
2022/02/11 14:22:13;;;;;;;4.83;2.00;;;6.80;93.40;;;;;;5054137;28;20640;-70
2022/02/11 14:24:38;;;;;;;12.37;2.40;;;6.70;94.80;;;;;;5055185;28;20572;-70
2022/02/11 14:27:06;;;;;;;5.40;2.10;;;6.60;96.30;;;;;;5055707;28;20175;-69
2022/02/11 14:29:32;;;;;;;6.03;2.37;;;6.60;97.40;;;;;;5052511;28;20281;-70
2022/02/11 14:31:58;;;;;;;5.00;2.70;;;6.60;98.20;;;;;;5052210;28;20784;-70
2022/02/11 14:34:24;;;;;;;5.93;2.20;;;6.60;99.10;;;;;;5053687;28;20437;-69
2022/02/11 14:36:49;;;;;;;8.33;2.63;;;6.60;99.50;;;;;;5051903;28;20405;-70
2022/02/11 14:39:18;;;;;;;7.13;2.80;;;6.70;99.40;;;;;;5065440;28;20189;-71
2022/02/11 14:41:48;;;;;;;8.63;2.40;;;6.80;99.70;;;;;;5054633;28;20186;-70
2022/02/11 14:44:18;;;;;;;4.20;1.90;;;6.70;99.00;;;;;;5053791;28;20868;-70
2022/02/11 14:46:45;;;;;;;5.40;2.03;;;6.70;99.20;;;;;;5054431;28;20920;-70
2022/02/11 14:49:11;;;;;;;6.83;2.50;;;6.70;99.20;;;;;;5056589;28;20484;-71
2022/02/11 14:51:37;;;;;;;10.67;2.70;;;6.70;99.30;;;;;;5065517;28;20417;-69
2022/02/11 14:54:11;;;;;;;5.40;2.50;;;6.80;99.30;;;;;;5067843;28;20189;-69
2022/02/11 14:56:38;;;;;;;6.87;2.50;;;6.80;98.60;;;;;;5069746;28;20419;-68
2022/02/11 14:59:04;;;;;;;6.97;2.53;;;6.70;99.00;;;;;;5062494;28;20408;-70
2022/02/11 15:01:30;;;;;;;7.50;2.87;;;6.80;99.20;;;;;;5079408;28;20414;-70
2022/02/11 15:03:57;;;;;;;14.00;3.00;;;6.70;98.30;;;;;;5078322;28;20404;-74
2022/02/11 15:06:22;;;;;;;6.00;2.50;;;6.70;98.40;;;;;;5080638;28;20219;-69
2022/02/11 15:08:49;;;;;;;9.53;2.63;;;6.60;98.20;;;;;;5080662;28;20543;-70
2022/02/11 15:11:14;;;;;;;14.30;3.50;;;6.50;98.60;;;;;;5065836;28;20210;-70
2022/02/11 15:13:40;;;;;;;5.60;2.77;;;6.60;98.30;;;;;;5059287;28;20439;-70
2022/02/11 15:16:06;;;;;;;5.17;2.43;;;6.40;98.00;;;;;;5083398;22;20228;-68
2022/02/11 15:18:32;;;;;;;5.13;2.13;;;6.40;98.20;;;;;;5055278;28;20705;-68
2022/02/11 15:21:05;;;;;;;17.47;2.93;;;6.50;98.00;;;;;;5059797;28;20415;-69
2022/02/11 15:23:38;;;;;;;5.70;1.97;;;6.50;97.50;;;;;;5070871;28;20432;-70
2022/02/11 15:26:05;;;;;;;11.07;3.10;;;6.50;97.20;;;;;;5056557;28;20516;-67
2022/02/11 15:28:32;;;;;;;8.63;2.30;;;6.40;97.40;;;;;;5053017;28;20448;-68
2022/02/11 15:30:58;;;;;;;9.17;2.60;;;6.40;97.60;;;;;;5054884;28;20436;-68
2022/02/11 15:33:24;;;;;;;6.00;2.17;;;6.30;97.50;;;;;;5053342;28;20463;-68
2022/02/11 15:35:50;;;;;;;6.20;2.73;;;6.30;97.60;;;;;;5053590;28;20450;-68
2022/02/11 15:38:15;;;;;;;6.73;2.93;;;6.30;98.00;;;;;;5053639;28;20216;-67
2022/02/11 15:40:41;;;;;;;14.23;3.10;;;6.30;97.70;;;;;;5053772;28;20189;-69
2022/02/11 15:43:06;;;;;;;8.73;2.67;;;6.20;97.80;;;;;;5054281;28;20760;-68
2022/02/11 15:45:32;;;;;;;4.83;2.67;;;6.20;98.30;;;;;;5053622;28;20217;-68
2022/02/11 15:47:58;;;;;;;4.20;2.73;;;6.10;97.40;;;;;;5053995;28;20949;-69
2022/02/11 15:50:23;;;;;;;9.63;2.40;;;6.10;97.50;;;;;;5054268;28;20177;-69
2022/02/11 15:52:52;;;;;;;10.33;2.90;;;6.00;96.50;;;;;;5054911;28;20181;-68
2022/02/11 15:55:17;;;;;;;6.30;2.43;;;6.00;95.60;;;;;;5053922;28;20194;-69
2022/02/11 15:57:43;;;;;;;8.80;2.40;;;6.00;95.60;;;;;;5053943;28;20413;-68
2022/02/11 16:00:09;;;;;;;3.30;2.07;;;5.90;95.70;;;;;;5053855;28;20558;-68
2022/02/11 16:02:35;;;;;;;5.00;1.93;;;5.90;94.70;;;;;;5053472;28;20716;-68
2022/02/11 16:05:01;;;;;;;3.43;1.73;;;5.90;94.80;;;;;;5052823;28;20448;-70
2022/02/11 16:07:29;;;;;;;8.90;2.47;;;5.80;95.30;;;;;;5035056;28;20824;-68
2022/02/11 16:09:55;;;;;;;5.23;2.77;;;5.80;95.60;;;;;;5053056;28;20201;-69
2022/02/11 16:12:21;;;;;;;4.60;2.03;;;5.90;96.00;;;;;;5034574;28;20450;-68
2022/02/11 16:14:46;;;;;;;8.07;2.63;;;5.90;95.80;;;;;;5055662;28;20682;-69
2022/02/11 16:17:12;;;;;;;6.87;2.40;;;5.90;95.90;;;;;;5047019;28;20186;-69
2022/02/11 16:19:38;;;;;;;6.43;2.93;;;5.90;95.80;;;;;;5033062;28;20185;-68
2022/02/11 16:22:05;;;;;;;8.93;3.47;;;5.90;96.10;;;;;;5047629;28;20179;-69
2022/02/11 16:24:34;;;;;;;6.30;3.13;;;6.00;96.20;;;;;;5048079;28;20430;-68
2022/02/11 16:27:00;;;;;;;7.63;3.47;;;6.00;96.00;;;;;;5048902;28;20424;-69